createdAt,value
2019-03-10T00:02:28.309Z,78.45
2019-03-10T00:04:57.993Z,78.76
2019-03-10T00:07:27.625Z,78.60
2019-03-10T00:09:57.289Z,78.30
2019-03-10T00:12:26.928Z,78.13
2019-03-10T00:14:56.600Z,78.45
2019-03-10T00:17:26.240Z,78.59
2019-03-10T00:19:55.983Z,78.18
2019-03-10T00:22:25.634Z,77.84
2019-03-10T00:24:55.270Z,77.65
2019-03-10T00:27:24.918Z,77.37
2019-03-10T00:29:54.582Z,77.21
2019-03-10T00:32:24.211Z,76.95
2019-03-10T00:34:53.887Z,76.93
2019-03-10T00:37:23.564Z,76.89
2019-03-10T00:39:58.930Z,77.33
2019-03-10T00:42:40.216Z,77.33
2019-03-10T00:45:35.850Z,77.27
2019-03-10T00:48:25.179Z,78.02
2019-03-10T00:51:26.665Z,78.43
2019-03-10T00:53:56.307Z,78.20
2019-03-10T00:56:25.952Z,78.37
2019-03-10T00:58:55.597Z,78.86
2019-03-10T01:01:25.251Z,78.03
2019-03-10T01:03:54.884Z,78.08
2019-03-10T01:06:24.614Z,77.48
2019-03-10T01:08:54.242Z,77.69
2019-03-10T01:11:23.957Z,77.29
2019-03-10T01:13:53.590Z,77.79
2019-03-10T01:16:23.316Z,77.96
2019-03-10T01:18:55.295Z,77.71
2019-03-10T01:21:27.046Z,78.27
2019-03-10T01:23:57.677Z,77.91
2019-03-10T01:26:27.342Z,78.08
2019-03-10T01:28:56.979Z,77.83
2019-03-10T01:31:46.256Z,77.67
2019-03-10T01:34:18.960Z,77.70
2019-03-10T01:36:48.597Z,77.53
2019-03-10T01:39:18.229Z,77.99
2019-03-10T01:41:47.913Z,78.48
2019-03-10T01:44:17.530Z,79.47
2019-03-10T01:46:47.174Z,80.03
2019-03-10T01:49:16.817Z,80.49
2019-03-10T01:51:46.459Z,80.06
2019-03-10T01:54:16.195Z,80.02
2019-03-10T01:56:45.944Z,80.29
2019-03-10T01:59:15.587Z,80.97
2019-03-10T02:01:45.261Z,81.00
2019-03-10T02:04:14.969Z,81.66
2019-03-10T02:06:44.643Z,81.55
2019-03-10T02:09:14.363Z,81.33
2019-03-10T02:11:44.044Z,81.26
2019-03-10T02:14:13.674Z,81.10
2019-03-10T02:16:43.341Z,80.62
2019-03-10T02:19:12.991Z,80.40
2019-03-10T02:21:42.626Z,80.68
2019-03-10T02:24:12.279Z,80.59
2019-03-10T02:26:41.919Z,80.12
2019-03-10T02:29:11.572Z,80.08
2019-03-10T02:31:41.214Z,80.44
2019-03-10T02:34:10.860Z,79.91
2019-03-10T02:36:40.490Z,79.63
2019-03-10T02:39:10.227Z,79.72
2019-03-10T02:41:39.844Z,79.81
2019-03-10T02:44:09.492Z,79.62
2019-03-10T02:46:39.146Z,80.06
2019-03-10T02:49:08.801Z,80.20
2019-03-10T02:51:38.464Z,80.07
2019-03-10T02:54:08.110Z,80.49
2019-03-10T02:56:37.736Z,80.69
2019-03-10T02:59:07.401Z,80.30
2019-03-10T03:01:37.130Z,80.23
2019-03-10T03:04:06.783Z,80.19
2019-03-10T03:06:36.411Z,80.56
2019-03-10T03:09:07.049Z,80.37
2019-03-10T03:11:36.876Z,80.36
2019-03-10T03:14:06.745Z,80.74
2019-03-10T03:16:36.625Z,80.41
2019-03-10T03:19:06.482Z,80.78
2019-03-10T03:21:42.999Z,81.01
2019-03-10T03:24:08.204Z,81.41
2019-03-10T03:26:37.845Z,81.60
2019-03-10T03:29:07.514Z,81.88
2019-03-10T03:31:37.160Z,81.91
2019-03-10T03:34:06.851Z,81.81
2019-03-10T03:36:37.016Z,82.02
2019-03-10T03:39:18.861Z,82.29
2019-03-10T03:41:48.570Z,82.20
2019-03-10T03:44:18.229Z,82.44
2019-03-10T03:46:47.873Z,82.46
2019-03-10T03:49:23.391Z,82.71
2019-03-10T03:51:53.028Z,83.11
2019-03-10T03:54:22.673Z,83.00
2019-03-10T03:56:52.308Z,83.00
2019-03-10T03:59:22.800Z,83.23
2019-03-10T04:01:56.883Z,83.43
2019-03-10T04:04:26.535Z,83.75
2019-03-10T04:06:56.164Z,83.73
2019-03-10T04:09:25.807Z,84.20
2019-03-10T04:11:55.448Z,84.50
2019-03-10T04:14:25.517Z,83.95
2019-03-10T04:16:55.122Z,84.26
2019-03-10T04:19:24.868Z,84.38
2019-03-10T04:21:54.497Z,84.28
2019-03-10T04:24:24.162Z,84.19
2019-03-10T04:26:53.851Z,84.02
2019-03-10T04:29:23.511Z,84.52
2019-03-10T04:31:53.150Z,84.29
2019-03-10T04:34:22.790Z,84.15
2019-03-10T04:36:52.480Z,84.39
2019-03-10T04:39:22.127Z,83.86
2019-03-10T04:41:51.784Z,83.72
2019-03-10T04:44:21.422Z,83.52
2019-03-10T04:46:51.058Z,83.68
2019-03-10T04:49:20.718Z,83.54
2019-03-10T04:51:50.339Z,83.66
2019-03-10T04:54:21.707Z,84.10
2019-03-10T04:56:53.020Z,84.02
2019-03-10T04:59:22.736Z,84.22
2019-03-10T05:01:52.370Z,84.36
2019-03-10T05:04:22.032Z,84.60
2019-03-10T05:06:51.670Z,84.74
2019-03-10T05:09:21.311Z,84.87
2019-03-10T05:11:50.943Z,84.71
2019-03-10T05:14:20.605Z,84.64
2019-03-10T05:16:50.246Z,84.70
2019-03-10T05:19:19.899Z,84.71
2019-03-10T05:21:49.645Z,84.87
2019-03-10T05:24:19.293Z,85.20
2019-03-10T05:26:48.947Z,84.65
2019-03-10T05:29:18.570Z,84.78
2019-03-10T05:31:48.228Z,84.97
2019-03-10T05:34:17.858Z,84.85
2019-03-10T05:36:53.122Z,85.01
2019-03-10T05:39:22.761Z,85.05
2019-03-10T05:41:52.399Z,85.22
2019-03-10T05:44:22.033Z,85.19
2019-03-10T05:46:52.719Z,85.03
2019-03-10T05:49:22.349Z,85.00
2019-03-10T05:51:51.995Z,84.68
2019-03-10T05:54:21.640Z,84.86
2019-03-10T05:56:51.368Z,84.87
2019-03-10T05:59:20.989Z,84.83
2019-03-10T06:01:50.676Z,84.43
2019-03-10T06:04:20.306Z,84.53
2019-03-10T06:06:50.022Z,83.99
2019-03-10T06:09:19.652Z,84.06
2019-03-10T06:11:49.307Z,83.99
2019-03-10T06:14:18.987Z,83.88
2019-03-10T06:16:48.623Z,83.69
2019-03-10T06:19:18.263Z,83.46
2019-03-10T06:21:47.944Z,83.81
2019-03-10T06:24:17.572Z,83.70
2019-03-10T06:26:47.225Z,83.81
2019-03-10T06:29:16.870Z,83.88
2019-03-10T06:31:46.552Z,83.61
2019-03-10T06:34:16.157Z,83.71
2019-03-10T06:36:45.873Z,83.67
2019-03-10T06:39:15.529Z,83.25
2019-03-10T06:41:46.135Z,82.26
2019-03-10T06:44:15.784Z,81.57
2019-03-10T06:46:45.436Z,81.75
2019-03-10T06:49:15.109Z,81.90
2019-03-10T06:51:44.748Z,81.87
2019-03-10T06:54:14.390Z,82.03
2019-03-10T06:56:44.037Z,81.96
2019-03-10T06:59:13.671Z,82.04
2019-03-10T07:01:43.318Z,82.05
2019-03-10T07:04:13.958Z,82.27
2019-03-10T07:06:43.601Z,82.74
2019-03-10T07:09:13.331Z,82.69
2019-03-10T07:11:42.981Z,82.66
2019-03-10T07:14:12.614Z,82.68
2019-03-10T07:16:42.257Z,82.81
2019-03-10T07:19:11.890Z,82.91
2019-03-10T07:21:41.529Z,82.97
2019-03-10T07:24:11.154Z,82.95
2019-03-10T07:26:40.800Z,82.72
2019-03-10T07:29:17.919Z,82.48
2019-03-10T07:31:58.229Z,82.30
2019-03-10T07:34:29.520Z,82.22
2019-03-10T07:37:16.910Z,81.99
2019-03-10T07:39:48.196Z,82.01
2019-03-10T07:42:31.690Z,81.50
2019-03-10T07:45:05.908Z,81.06
2019-03-10T07:47:40.305Z,80.97
2019-03-10T07:50:20.601Z,80.58
2019-03-10T07:52:51.897Z,80.38
2019-03-10T07:55:23.169Z,79.86
2019-03-10T07:58:00.453Z,79.52
2019-03-10T08:00:31.726Z,79.42
2019-03-10T08:03:03.017Z,78.88
2019-03-10T08:05:36.966Z,78.65
2019-03-10T08:08:11.004Z,78.46
2019-03-10T08:10:45.199Z,78.10
2019-03-10T08:13:31.787Z,77.35
2019-03-10T08:16:03.075Z,77.63
2019-03-10T08:18:37.033Z,78.47
2019-03-10T08:21:26.626Z,78.73
2019-03-10T08:23:57.930Z,79.04
2019-03-10T08:26:32.166Z,79.29
2019-03-10T08:29:21.725Z,78.30
2019-03-10T08:31:55.714Z,79.02
2019-03-10T08:34:27.006Z,77.37
2019-03-10T08:37:14.753Z,75.75
2019-03-10T08:39:49.023Z,75.08
2019-03-10T08:42:32.358Z,73.87
2019-03-10T08:45:12.333Z,73.20
2019-03-10T08:47:43.622Z,73.04
2019-03-10T08:50:14.892Z,72.69
2019-03-10T08:52:52.226Z,73.67
2019-03-10T08:55:26.202Z,72.78
2019-03-10T08:58:13.658Z,72.66
2019-03-10T09:00:50.976Z,72.51
2019-03-10T09:03:22.334Z,72.62
2019-03-10T09:05:53.614Z,73.26
2019-03-10T09:08:24.911Z,73.48
2019-03-10T09:11:02.349Z,73.48
2019-03-10T09:13:36.445Z,74.05
2019-03-10T09:16:23.852Z,74.81
2019-03-10T09:18:55.140Z,74.07
2019-03-10T09:21:32.447Z,73.15
2019-03-10T09:24:06.631Z,73.51
2019-03-10T09:26:54.110Z,73.78
2019-03-10T09:29:25.487Z,73.91
2019-03-10T09:32:02.438Z,73.49
2019-03-10T09:34:48.721Z,72.74
2019-03-10T09:37:29.030Z,71.36
2019-03-10T09:40:16.575Z,71.14
2019-03-10T09:42:56.822Z,69.84
2019-03-10T09:45:44.027Z,68.88
2019-03-10T09:48:15.384Z,68.42
2019-03-10T09:50:55.727Z,67.43
2019-03-10T09:53:30.153Z,67.93
2019-03-10T09:56:10.915Z,68.34
2019-03-10T09:58:50.899Z,68.68
2019-03-10T10:01:24.876Z,68.04
2019-03-10T10:03:56.135Z,69.64
2019-03-10T10:06:27.416Z,69.37
2019-03-10T10:08:58.684Z,68.26
2019-03-10T10:11:38.921Z,69.01
2019-03-10T10:14:10.562Z,67.70
2019-03-10T10:16:42.023Z,64.85
2019-03-10T10:19:29.985Z,62.94
2019-03-10T10:22:17.040Z,63.12
2019-03-10T10:25:06.340Z,62.40
2019-03-10T10:27:43.323Z,64.03
2019-03-10T10:30:15.024Z,64.21
2019-03-10T10:32:46.292Z,66.27
2019-03-10T10:35:17.576Z,63.57
2019-03-10T10:37:54.437Z,62.86
2019-03-10T10:40:25.737Z,63.60
2019-03-10T10:43:12.300Z,63.86
2019-03-10T10:45:49.335Z,62.62
2019-03-10T10:48:20.688Z,63.98
2019-03-10T10:50:51.976Z,64.75
2019-03-10T10:53:26.274Z,65.19
2019-03-10T10:56:03.342Z,64.53
2019-03-10T10:58:40.392Z,63.28
2019-03-10T11:01:28.158Z,62.36
2019-03-10T11:04:17.948Z,62.31
2019-03-10T11:07:05.332Z,62.15
2019-03-10T11:09:36.622Z,59.46
2019-03-10T11:12:19.883Z,60.39
2019-03-10T11:14:56.885Z,61.51
2019-03-10T11:17:28.187Z,61.72
2019-03-10T11:19:59.491Z,61.48
2019-03-10T11:22:30.805Z,61.46
2019-03-10T11:25:04.776Z,61.42
2019-03-10T11:27:36.069Z,61.63
2019-03-10T11:30:10.970Z,61.29
2019-03-10T11:32:45.218Z,62.03
2019-03-10T11:35:22.371Z,61.97
2019-03-10T11:37:59.361Z,59.52
2019-03-10T11:40:36.420Z,59.85
2019-03-10T11:43:10.458Z,60.99
2019-03-10T11:45:53.671Z,59.27
2019-03-10T11:48:27.691Z,61.06
2019-03-10T11:51:10.641Z,59.42
2019-03-10T11:53:41.910Z,60.58
2019-03-10T11:56:18.904Z,58.71
2019-03-10T11:58:52.940Z,58.56
2019-03-10T12:01:24.205Z,60.01
2019-03-10T12:04:01.304Z,60.53
2019-03-10T12:06:32.674Z,59.32
2019-03-10T12:09:03.968Z,59.52
2019-03-10T12:11:33.594Z,57.39
2019-03-10T12:14:03.377Z,58.76
2019-03-10T12:16:33.083Z,58.85
2019-03-10T12:19:02.720Z,57.96
2019-03-10T12:21:32.418Z,58.37
2019-03-10T12:24:02.165Z,57.39
2019-03-10T12:26:31.782Z,59.01
2019-03-10T12:29:01.436Z,58.61
2019-03-10T12:31:31.050Z,57.45
2019-03-10T12:34:00.710Z,57.86
2019-03-10T12:36:35.565Z,56.33
2019-03-10T12:39:07.313Z,56.41
2019-03-10T12:41:36.946Z,55.97
2019-03-10T12:44:06.594Z,57.19
2019-03-10T12:46:43.241Z,57.03
2019-03-10T12:49:12.899Z,55.31
2019-03-10T12:51:42.540Z,56.35
2019-03-10T12:54:12.360Z,55.96
2019-03-10T12:56:41.995Z,56.25
2019-03-10T12:59:11.661Z,56.54
2019-03-10T13:01:41.300Z,56.68
2019-03-10T13:04:10.957Z,55.30
2019-03-10T13:06:40.576Z,56.76
2019-03-10T13:09:11.071Z,56.39
2019-03-10T13:11:40.702Z,54.60
2019-03-10T13:14:10.399Z,56.47
2019-03-10T13:16:40.037Z,53.79
2019-03-10T13:19:09.765Z,54.24
2019-03-10T13:21:39.460Z,56.57
2019-03-10T13:24:09.105Z,56.78
2019-03-10T13:26:38.765Z,55.71
2019-03-10T13:29:08.442Z,56.03
2019-03-10T13:31:38.227Z,55.72
2019-03-10T13:34:07.847Z,57.34
2019-03-10T13:36:37.493Z,57.62
2019-03-10T13:39:07.455Z,59.11
2019-03-10T13:41:37.093Z,58.79
2019-03-10T13:44:06.715Z,56.78
2019-03-10T13:46:36.367Z,57.54
2019-03-10T13:49:06.044Z,56.29
2019-03-10T13:51:35.634Z,58.01
2019-03-10T13:54:06.412Z,56.89
2019-03-10T13:56:36.054Z,57.76
2019-03-10T13:59:05.683Z,59.33
2019-03-10T14:01:35.331Z,58.93
2019-03-10T14:04:05.042Z,58.03
2019-03-10T14:06:34.691Z,59.39
2019-03-10T14:09:06.127Z,60.43
2019-03-10T14:11:35.768Z,60.85
2019-03-10T14:14:05.395Z,58.80
2019-03-10T14:16:35.466Z,59.42
2019-03-10T14:19:05.235Z,60.99
2019-03-10T14:21:35.432Z,62.33
2019-03-10T14:24:05.214Z,63.09
2019-03-10T14:26:34.897Z,62.27
2019-03-10T14:29:04.786Z,61.79
2019-03-10T14:31:34.466Z,62.14
2019-03-10T14:34:04.172Z,62.61
2019-03-10T14:36:34.229Z,62.35
2019-03-10T14:39:05.380Z,62.89
2019-03-10T14:41:36.570Z,63.57
2019-03-10T14:44:06.287Z,63.19
2019-03-10T14:46:35.940Z,64.36
2019-03-10T14:49:05.644Z,63.31
2019-03-10T14:51:35.287Z,64.26
2019-03-10T14:54:04.943Z,63.12
2019-03-10T14:56:34.747Z,63.42
2019-03-10T14:59:04.767Z,63.50
2019-03-10T15:01:34.475Z,63.07
2019-03-10T15:04:04.192Z,64.16
2019-03-10T15:06:34.198Z,64.70
2019-03-10T15:09:05.273Z,64.26
2019-03-10T15:11:34.929Z,63.57
2019-03-10T15:14:04.705Z,64.14
2019-03-10T15:16:34.333Z,63.94
2019-03-10T15:19:04.005Z,63.92
2019-03-10T15:21:33.836Z,64.74
2019-03-10T15:24:03.960Z,64.66
2019-03-10T15:26:33.667Z,65.21
2019-03-10T15:29:03.520Z,66.96
2019-03-10T15:31:33.146Z,66.63
2019-03-10T15:34:02.853Z,67.71
2019-03-10T15:36:32.500Z,67.31
2019-03-10T15:39:02.161Z,68.11
2019-03-10T15:41:31.790Z,68.67
2019-03-10T15:44:01.526Z,69.37
2019-03-10T15:46:31.436Z,68.95
2019-03-10T15:49:01.870Z,69.16
2019-03-10T15:51:31.651Z,70.07
2019-03-10T15:54:01.469Z,70.43
2019-03-10T15:56:31.145Z,70.55
2019-03-10T15:59:00.856Z,70.43
2019-03-10T16:01:30.597Z,71.25
2019-03-10T16:04:04.342Z,71.21
2019-03-10T16:06:34.240Z,70.66
2019-03-10T16:09:05.181Z,70.91
2019-03-10T16:11:34.880Z,70.13
2019-03-10T16:14:04.560Z,68.79
2019-03-10T16:16:34.230Z,68.04
2019-03-10T16:19:03.889Z,67.83
2019-03-10T16:21:33.521Z,68.53
2019-03-10T16:24:03.171Z,68.77
2019-03-10T16:26:32.837Z,68.89
2019-03-10T16:29:02.474Z,68.67
2019-03-10T16:31:32.124Z,67.97
2019-03-10T16:34:01.793Z,67.95
2019-03-10T16:36:31.495Z,68.20
2019-03-10T16:39:01.178Z,67.67
2019-03-10T16:41:30.818Z,67.88
2019-03-10T16:44:00.460Z,68.77
2019-03-10T16:46:30.108Z,69.44
2019-03-10T16:48:59.780Z,69.49
2019-03-10T16:51:29.435Z,69.65
2019-03-10T16:53:59.134Z,69.72
2019-03-10T16:56:31.672Z,70.13
2019-03-10T16:59:01.314Z,70.82
2019-03-10T17:01:30.970Z,70.69
2019-03-10T17:04:00.616Z,70.47
2019-03-10T17:06:36.554Z,69.85
2019-03-10T17:09:15.071Z,66.96
2019-03-10T17:11:48.031Z,67.44
2019-03-10T17:14:17.651Z,66.57
2019-03-10T17:16:47.300Z,67.44
2019-03-10T17:19:16.923Z,67.57
2019-03-10T17:21:46.578Z,67.42
2019-03-10T17:24:16.204Z,68.27
2019-03-10T17:26:49.097Z,68.12
2019-03-10T17:29:18.721Z,68.36
2019-03-10T17:31:48.359Z,69.42
2019-03-10T17:34:17.998Z,69.99
2019-03-10T17:36:51.406Z,70.01
2019-03-10T17:39:21.021Z,70.39
2019-03-10T17:41:50.680Z,70.45
2019-03-10T17:44:20.305Z,70.33
2019-03-10T17:46:49.962Z,70.22
2019-03-10T17:49:19.648Z,70.88
2019-03-10T17:51:49.358Z,71.03
2019-03-10T17:54:19.081Z,70.97
2019-03-10T17:56:48.934Z,71.03
2019-03-10T17:59:18.665Z,71.19
2019-03-10T18:01:48.492Z,71.75
2019-03-10T18:04:18.068Z,72.24
2019-03-10T18:06:47.728Z,72.37
2019-03-10T18:09:17.397Z,72.69
2019-03-10T18:11:47.059Z,72.64
2019-03-10T18:14:16.697Z,72.68
2019-03-10T18:16:46.334Z,72.94
2019-03-10T18:19:15.990Z,73.52
2019-03-10T18:21:45.668Z,73.77
2019-03-10T18:24:15.320Z,73.60
2019-03-10T18:26:44.964Z,73.67
2019-03-10T18:29:14.633Z,74.03
2019-03-10T18:31:44.762Z,73.93
2019-03-10T18:34:14.664Z,74.32
2019-03-10T18:36:44.310Z,74.67
2019-03-10T18:39:14.187Z,74.90
2019-03-10T18:41:43.903Z,74.85
2019-03-10T18:44:13.555Z,75.09
2019-03-10T18:46:45.256Z,75.02
2019-03-10T18:49:14.980Z,75.13
2019-03-10T18:51:44.631Z,74.94
2019-03-10T18:54:14.301Z,75.22
2019-03-10T18:56:44.072Z,75.33
2019-03-10T18:59:13.879Z,75.49
2019-03-10T19:01:43.511Z,75.77
2019-03-10T19:04:13.487Z,75.86
2019-03-10T19:06:43.198Z,75.93
2019-03-10T19:09:12.854Z,75.99
2019-03-10T19:11:42.485Z,76.14
2019-03-10T19:14:12.162Z,76.42
2019-03-10T19:16:41.785Z,76.43
2019-03-10T19:19:11.438Z,76.39
2019-03-10T19:21:41.148Z,76.65
2019-03-10T19:24:10.809Z,77.01
2019-03-10T19:26:40.496Z,77.11
2019-03-10T19:29:10.217Z,76.95
2019-03-10T19:31:39.858Z,77.20
2019-03-10T19:34:09.518Z,77.45
2019-03-10T19:36:39.271Z,77.59
2019-03-10T19:39:08.932Z,77.58
2019-03-10T19:41:38.579Z,77.28
2019-03-10T19:44:08.248Z,77.74
2019-03-10T19:46:37.871Z,78.00
2019-03-10T19:49:07.814Z,78.24
2019-03-10T19:51:37.471Z,78.54
2019-03-10T19:54:07.156Z,78.42
2019-03-10T19:56:36.801Z,78.62
2019-03-10T19:59:06.501Z,78.97
2019-03-10T20:01:36.183Z,79.17
2019-03-10T20:04:05.920Z,79.56
2019-03-10T20:06:35.619Z,79.79
2019-03-10T20:09:07.135Z,80.21
2019-03-10T20:11:36.847Z,80.35
2019-03-10T20:14:06.846Z,80.41
2019-03-10T20:16:36.562Z,80.54
2019-03-10T20:19:06.446Z,80.79
2019-03-10T20:21:36.133Z,80.63
2019-03-10T20:24:05.889Z,80.75
2019-03-10T20:26:35.608Z,80.87
2019-03-10T20:29:05.341Z,81.07
2019-03-10T20:31:35.084Z,81.11
2019-03-10T20:34:04.811Z,81.16
2019-03-10T20:36:34.620Z,81.45
2019-03-10T20:39:05.969Z,81.30
2019-03-10T20:41:35.702Z,81.56
2019-03-10T20:44:05.486Z,81.42
2019-03-10T20:46:35.376Z,81.52
2019-03-10T20:49:05.291Z,81.63
2019-03-10T20:51:35.045Z,81.99
2019-03-10T20:54:05.761Z,81.78
2019-03-10T20:56:35.477Z,81.84
2019-03-10T20:59:05.407Z,82.03
2019-03-10T21:01:35.189Z,82.08
2019-03-10T21:04:04.987Z,81.95
2019-03-10T21:06:35.192Z,82.00
2019-03-10T21:09:07.221Z,82.13
2019-03-10T21:11:36.934Z,82.26
2019-03-10T21:14:06.719Z,82.24
2019-03-10T21:16:36.758Z,82.51
2019-03-10T21:19:07.414Z,82.44
2019-03-10T21:21:37.091Z,82.66
2019-03-10T21:24:06.977Z,82.68
2019-03-10T21:26:36.633Z,82.61
2019-03-10T21:29:06.533Z,82.66
2019-03-10T21:31:36.193Z,82.82
2019-03-10T21:34:05.846Z,82.92
2019-03-10T21:36:35.503Z,82.94
2019-03-10T21:39:06.407Z,82.78
2019-03-10T21:41:36.080Z,82.89
2019-03-10T21:44:05.704Z,83.06
2019-03-10T21:46:35.378Z,83.11
2019-03-10T21:49:06.084Z,83.29
2019-03-10T21:51:35.784Z,83.38
2019-03-10T21:54:05.466Z,83.69
2019-03-10T21:56:35.223Z,83.86
2019-03-10T21:59:04.955Z,84.13
2019-03-10T22:01:34.635Z,84.29
2019-03-10T22:04:04.338Z,84.34
2019-03-10T22:06:34.029Z,84.53
2019-03-10T22:09:04.811Z,84.97
2019-03-10T22:11:34.564Z,84.99
2019-03-10T22:14:04.374Z,84.95
2019-03-10T22:16:34.081Z,85.10
2019-03-10T22:19:03.805Z,85.22
2019-03-10T22:21:33.602Z,85.89
2019-03-10T22:24:03.415Z,86.01
2019-03-10T22:26:33.098Z,85.75
2019-03-10T22:29:02.822Z,86.09
2019-03-10T22:31:33.594Z,85.89
2019-03-10T22:34:03.358Z,85.82
2019-03-10T22:36:33.016Z,85.91
2019-03-10T22:39:02.761Z,85.67
2019-03-10T22:41:33.527Z,85.56
2019-03-10T22:44:03.235Z,85.69
2019-03-10T22:46:32.945Z,85.60
2019-03-10T22:49:02.655Z,85.66
2019-03-10T22:51:32.350Z,85.84
2019-03-10T22:54:02.079Z,85.94
2019-03-10T22:56:31.768Z,85.50
2019-03-10T22:59:01.508Z,85.49
2019-03-10T23:01:31.283Z,85.14
2019-03-10T23:04:01.024Z,85.05
2019-03-10T23:06:30.708Z,85.07
2019-03-10T23:09:00.426Z,85.06
2019-03-10T23:11:30.139Z,84.92
2019-03-10T23:13:59.848Z,84.80
2019-03-10T23:16:29.572Z,84.61
2019-03-10T23:18:59.475Z,84.42
2019-03-10T23:21:29.235Z,84.28
2019-03-10T23:23:59.009Z,84.10
2019-03-10T23:26:28.701Z,83.91
2019-03-10T23:28:58.379Z,83.72
2019-03-10T23:31:28.142Z,83.71
2019-03-10T23:33:57.839Z,83.46
2019-03-10T23:36:27.570Z,83.51
2019-03-10T23:38:57.290Z,83.13
2019-03-10T23:41:27.408Z,83.34
2019-03-10T23:43:57.123Z,83.37
2019-03-10T23:46:26.855Z,83.85
2019-03-10T23:48:56.554Z,84.20
2019-03-10T23:51:26.282Z,84.42
2019-03-10T23:53:55.988Z,84.61
2019-03-10T23:56:25.709Z,84.71
2019-03-10T23:58:55.404Z,85.06
